Time;durP1;ratioP1;P1;durP2;ratioP2;P2;SDS_P1;SDS_P2;PMS_P1;PMS_P2;Temp;Humidity;BMP_temperature;BMP_pressure;BME280_temperature;BME280_humidity;BME280_pressure;Samples;Min_cycle;Max_cycle;Signal;HPM_P1;HPM_P2
2023/03/14 00:02:19;;;;;;;9.23;2.05;;;12.80;93.00;;;;;;4973471;28;20043;-83
2023/03/14 00:04:44;;;;;;;8.82;1.70;;;12.80;93.00;;;;;;4972512;28;20019;-83
2023/03/14 00:07:12;;;;;;;11.65;2.30;;;12.80;93.10;;;;;;4972557;28;20440;-84
2023/03/14 00:09:37;;;;;;;12.57;2.40;;;12.80;93.20;;;;;;4972358;28;20027;-84
2023/03/14 00:12:03;;;;;;;10.43;1.92;;;12.80;93.30;;;;;;4956583;28;20038;-84
2023/03/14 00:14:31;;;;;;;12.25;1.90;;;12.80;93.40;;;;;;4972818;28;20113;-84
2023/03/14 00:16:56;;;;;;;10.35;1.95;;;12.70;93.60;;;;;;4976362;28;20037;-84
2023/03/14 00:19:22;;;;;;;11.57;2.10;;;12.70;94.20;;;;;;4977442;28;20034;-84
2023/03/14 00:21:47;;;;;;;8.95;1.88;;;12.70;95.50;;;;;;4977516;28;20479;-84
2023/03/14 00:24:13;;;;;;;10.95;1.60;;;12.60;97.10;;;;;;4976334;28;20360;-83
2023/03/14 00:26:39;;;;;;;10.43;1.60;;;12.40;98.50;;;;;;4959777;28;20368;-82
2023/03/14 00:29:04;;;;;;;10.93;1.40;;;12.30;99.20;;;;;;4976030;28;20027;-83
2023/03/14 00:31:30;;;;;;;7.47;0.95;;;12.00;99.50;;;;;;4975269;28;20587;-83
2023/03/14 00:33:56;;;;;;;5.23;1.13;;;12.00;99.60;;;;;;4977240;28;20051;-83
2023/03/14 00:36:23;;;;;;;7.20;1.05;;;11.80;99.50;;;;;;4975981;28;20030;-83
2023/03/14 00:38:50;;;;;;;7.07;1.17;;;11.80;99.30;;;;;;4990200;28;20129;-82
2023/03/14 00:41:19;;;;;;;6.43;1.30;;;11.70;99.20;;;;;;4994872;28;20018;-82
2023/03/14 00:43:45;;;;;;;6.53;0.70;;;11.60;99.10;;;;;;4996249;28;20030;-82
2023/03/14 00:46:12;;;;;;;4.93;0.77;;;11.50;98.90;;;;;;4978780;28;20049;-84
2023/03/14 00:48:38;;;;;;;5.93;0.80;;;11.50;98.80;;;;;;4994901;28;20026;-84
2023/03/14 00:51:05;;;;;;;6.63;1.03;;;11.50;98.70;;;;;;4978897;28;20054;-83
2023/03/14 00:53:31;;;;;;;7.97;0.97;;;11.40;98.80;;;;;;4994953;28;20030;-83
2023/03/14 00:55:56;;;;;;;7.13;1.00;;;11.40;98.70;;;;;;4978546;28;20089;-83
2023/03/14 00:58:22;;;;;;;6.30;0.90;;;11.40;98.90;;;;;;4962426;28;20027;-84
2023/03/14 01:00:48;;;;;;;7.07;0.90;;;11.30;98.90;;;;;;4962228;28;20027;-83
2023/03/14 01:03:14;;;;;;;9.73;0.90;;;11.40;99.00;;;;;;4978163;28;20421;-82
2023/03/14 01:05:41;;;;;;;7.17;1.30;;;11.20;99.00;;;;;;4962428;28;20034;-82
2023/03/14 01:08:07;;;;;;;9.43;1.50;;;11.30;99.10;;;;;;4978635;28;20101;-84
2023/03/14 01:10:33;;;;;;;5.50;1.33;;;11.30;99.10;;;;;;4962812;28;20026;-82
2023/03/14 01:12:59;;;;;;;10.27;1.93;;;11.30;99.10;;;;;;4978607;28;20080;-83
2023/03/14 01:15:25;;;;;;;6.83;1.50;;;11.40;99.10;;;;;;4978013;28;20129;-83
2023/03/14 01:17:50;;;;;;;12.50;1.60;;;11.30;99.10;;;;;;4978148;28;20134;-83
2023/03/14 01:20:17;;;;;;;6.88;1.00;;;11.30;99.00;;;;;;4978164;28;20026;-83
2023/03/14 01:22:43;;;;;;;10.50;1.50;;;11.30;99.00;;;;;;4994369;28;20030;-84
2023/03/14 01:25:15;;;;;;;15.00;2.07;;;11.40;99.00;;;;;;4994124;28;20062;-83
2023/03/14 01:27:41;;;;;;;10.27;1.33;;;11.40;98.60;;;;;;4995625;28;20030;-83
2023/03/14 01:30:08;;;;;;;8.20;1.37;;;11.40;98.30;;;;;;4993879;28;20034;-83
2023/03/14 01:32:34;;;;;;;9.27;1.43;;;11.40;97.90;;;;;;4993946;28;20372;-83
2023/03/14 01:34:59;;;;;;;7.63;1.37;;;11.40;97.80;;;;;;4977861;28;20057;-83
2023/03/14 01:37:25;;;;;;;9.48;1.30;;;11.40;97.70;;;;;;4977406;28;20558;-83
2023/03/14 01:39:51;;;;;;;10.60;1.60;;;11.40;97.80;;;;;;4977882;28;20429;-83
2023/03/14 01:42:16;;;;;;;6.57;0.80;;;11.40;97.70;;;;;;4961525;28;20070;-83
2023/03/14 01:44:54;;;;;;;8.83;1.13;;;11.40;97.80;;;;;;4977759;28;20034;-83
2023/03/14 01:47:20;;;;;;;12.57;1.30;;;11.40;98.00;;;;;;4993977;28;20027;-83
2023/03/14 01:50:10;;;;;;;9.60;1.40;;;11.40;98.10;;;;;;4977323;28;20038;-83
2023/03/14 01:52:46;;;;;;;8.50;1.30;;;11.40;98.40;;;;;;4977105;28;20077;-84
2023/03/14 01:55:22;;;;;;;12.02;1.65;;;11.30;98.60;;;;;;4993627;28;20022;-84
2023/03/14 01:58:00;;;;;;;12.60;1.93;;;11.30;99.80;;;;;;4993263;28;20030;-84
2023/03/14 02:00:26;;;;;;;8.00;1.33;;;11.20;99.90;;;;;;4994678;28;20038;-84
2023/03/14 02:02:57;;;;;;;9.10;1.13;;;11.10;99.90;;;;;;4977360;28;20506;-84
2023/03/14 02:05:37;;;;;;;12.33;1.70;;;11.10;99.90;;;;;;4995185;28;20102;-86
2023/03/14 02:08:08;;;;;;;12.13;1.50;;;11.00;99.90;;;;;;4994011;28;20027;-84
2023/03/14 02:10:39;;;;;;;13.00;1.87;;;10.90;99.90;;;;;;4994693;28;20026;-82
2023/03/14 02:13:06;;;;;;;10.83;1.83;;;10.80;99.90;;;;;;4992965;28;20018;-83
2023/03/14 02:15:32;;;;;;;8.07;1.67;;;10.80;99.90;;;;;;4976947;28;20030;-83
2023/03/14 02:17:59;;;;;;;8.13;1.40;;;10.70;99.90;;;;;;4994912;28;20061;-84
2023/03/14 02:20:28;;;;;;;9.03;1.50;;;10.60;99.90;;;;;;4993480;28;20084;-86
2023/03/14 02:22:53;;;;;;;9.53;1.77;;;10.60;99.90;;;;;;4993257;28;20494;-84
2023/03/14 02:25:26;;;;;;;15.13;1.90;;;10.50;99.90;;;;;;4994581;28;20454;-85
2023/03/14 02:27:52;;;;;;;7.87;1.40;;;10.50;99.90;;;;;;4994420;28;20022;-85
2023/03/14 02:30:24;;;;;;;11.37;1.30;;;10.40;99.90;;;;;;4960234;28;20041;-85
2023/03/14 02:32:56;;;;;;;6.73;1.30;;;10.40;99.90;;;;;;4994552;28;20025;-84
2023/03/14 02:35:25;;;;;;;11.87;1.70;;;10.20;99.90;;;;;;4993215;28;20467;-85
2023/03/14 02:37:53;;;;;;;12.93;1.80;;;10.20;99.90;;;;;;4992644;28;20046;-85
2023/03/14 02:40:19;;;;;;;14.23;1.53;;;10.10;99.90;;;;;;4994481;28;20042;-84
2023/03/14 02:42:45;;;;;;;11.63;1.60;;;10.10;99.90;;;;;;4976602;28;20056;-82
2023/03/14 02:45:10;;;;;;;15.57;1.80;;;10.10;99.90;;;;;;4993080;28;20026;-82
2023/03/14 02:47:46;;;;;;;10.83;1.10;;;10.10;99.90;;;;;;4992867;28;20026;-82
2023/03/14 02:50:17;;;;;;;10.63;1.57;;;10.10;99.90;;;;;;4994362;28;20031;-82
2023/03/14 02:52:42;;;;;;;9.43;1.37;;;10.10;99.90;;;;;;4993809;28;20097;-82
2023/03/14 02:55:08;;;;;;;5.67;1.03;;;10.00;99.90;;;;;;4976804;28;20470;-82
2023/03/14 02:57:34;;;;;;;7.63;1.20;;;10.10;99.90;;;;;;4992880;28;20387;-83
2023/03/14 03:00:03;;;;;;;7.83;1.50;;;10.10;99.90;;;;;;4976795;28;20030;-82
2023/03/14 03:02:29;;;;;;;10.47;1.10;;;10.10;99.90;;;;;;4992395;28;20038;-82
2023/03/14 03:04:55;;;;;;;8.50;1.33;;;10.10;99.90;;;;;;4976382;28;20545;-82
2023/03/14 03:07:20;;;;;;;12.17;1.23;;;10.10;99.90;;;;;;4976215;28;20030;-82
2023/03/14 03:09:46;;;;;;;12.20;1.40;;;10.10;99.90;;;;;;4993714;28;20030;-81
2023/03/14 03:12:12;;;;;;;8.93;1.27;;;10.10;99.90;;;;;;4976327;28;20041;-82
2023/03/14 03:14:38;;;;;;;8.20;1.20;;;10.10;99.90;;;;;;4976334;28;20121;-83
2023/03/14 03:17:06;;;;;;;7.10;1.23;;;10.10;99.90;;;;;;4960466;28;20033;-81
2023/03/14 03:19:33;;;;;;;8.67;1.40;;;10.10;99.90;;;;;;4976419;28;20467;-83
2023/03/14 03:21:58;;;;;;;12.07;2.77;;;10.10;99.90;;;;;;4975905;28;20402;-82
2023/03/14 03:24:25;;;;;;;12.13;1.60;;;10.00;99.90;;;;;;4976475;28;20030;-84
2023/03/14 03:26:51;;;;;;;7.33;1.27;;;10.10;99.90;;;;;;4992379;28;20054;-82
2023/03/14 03:29:16;;;;;;;10.40;1.70;;;10.10;99.90;;;;;;4976581;28;20033;-83
2023/03/14 03:31:45;;;;;;;7.83;0.90;;;10.10;99.90;;;;;;4991774;28;20475;-82
2023/03/14 03:34:11;;;;;;;10.70;1.40;;;10.10;99.90;;;;;;4977174;28;20426;-83
2023/03/14 03:36:36;;;;;;;10.37;1.80;;;10.10;99.90;;;;;;4960336;28;20088;-83
2023/03/14 03:39:02;;;;;;;7.20;1.50;;;10.10;99.90;;;;;;4956904;28;20101;-83
2023/03/14 03:41:28;;;;;;;9.30;1.50;;;10.20;99.90;;;;;;4972863;28;20047;-83
2023/03/14 03:43:54;;;;;;;7.93;1.83;;;10.20;99.90;;;;;;4972542;28;20038;-83
2023/03/14 03:46:19;;;;;;;15.23;1.80;;;10.20;99.90;;;;;;4973049;28;20031;-83
2023/03/14 03:48:45;;;;;;;12.10;2.03;;;10.20;99.90;;;;;;4973487;28;20041;-85
2023/03/14 03:51:15;;;;;;;12.97;1.43;;;10.20;99.90;;;;;;4975839;28;20376;-82
2023/03/14 03:53:42;;;;;;;12.63;2.23;;;10.30;99.90;;;;;;4976724;28;20050;-83
2023/03/14 03:56:08;;;;;;;10.73;1.60;;;10.20;99.90;;;;;;4976424;28;20034;-82
2023/03/14 03:58:34;;;;;;;14.30;1.97;;;10.30;99.90;;;;;;4975903;28;20542;-82
2023/03/14 04:01:00;;;;;;;12.73;1.93;;;10.30;99.90;;;;;;4960353;28;20031;-81
2023/03/14 04:03:26;;;;;;;15.80;2.10;;;10.40;99.90;;;;;;4976149;28;20066;-83
2023/03/14 04:06:01;;;;;;;8.17;1.23;;;10.40;99.90;;;;;;4976468;28;20082;-82
2023/03/14 04:08:28;;;;;;;10.23;1.83;;;10.40;99.90;;;;;;4977291;28;20479;-82
2023/03/14 04:10:58;;;;;;;12.30;1.87;;;10.50;99.90;;;;;;4977072;28;20026;-82
2023/03/14 04:13:25;;;;;;;12.30;2.17;;;10.40;99.90;;;;;;4976196;28;20031;-82
2023/03/14 04:15:51;;;;;;;12.00;1.90;;;10.50;99.90;;;;;;4975641;28;20498;-82
2023/03/14 04:18:17;;;;;;;12.10;1.87;;;10.50;99.90;;;;;;4976220;28;20026;-82
2023/03/14 04:20:43;;;;;;;10.23;2.00;;;10.50;99.90;;;;;;4975754;28;20595;-83
2023/03/14 04:23:09;;;;;;;11.37;1.80;;;10.50;99.90;;;;;;4959824;28;20046;-82
2023/03/14 04:25:34;;;;;;;14.10;1.67;;;10.60;99.90;;;;;;4976255;28;20115;-83
2023/03/14 04:28:01;;;;;;;7.93;1.40;;;10.50;99.90;;;;;;4975676;28;20047;-83
2023/03/14 04:30:27;;;;;;;9.70;1.30;;;10.60;99.90;;;;;;4975781;28;20037;-83
2023/03/14 04:32:52;;;;;;;5.93;1.17;;;10.60;99.90;;;;;;4977027;28;20049;-82
2023/03/14 04:35:18;;;;;;;8.27;1.57;;;10.60;99.90;;;;;;4976371;28;20475;-83
2023/03/14 04:37:44;;;;;;;7.03;1.20;;;10.60;99.90;;;;;;4981097;28;20054;-83
2023/03/14 04:40:10;;;;;;;11.70;1.50;;;10.60;99.90;;;;;;4979048;28;20042;-84
2023/03/14 04:42:36;;;;;;;14.10;1.40;;;10.60;99.90;;;;;;4994805;28;20141;-83
2023/03/14 04:45:02;;;;;;;8.10;1.20;;;10.60;99.90;;;;;;4979059;28;20109;-82
2023/03/14 04:47:28;;;;;;;7.63;1.30;;;10.70;99.90;;;;;;4994321;28;20026;-83
2023/03/14 04:49:54;;;;;;;10.00;1.30;;;10.70;99.90;;;;;;4962950;28;20034;-83
2023/03/14 04:52:20;;;;;;;8.63;1.43;;;10.70;99.90;;;;;;4995238;28;20459;-83
2023/03/14 04:54:45;;;;;;;8.00;0.93;;;10.70;99.90;;;;;;4978704;28;20030;-83
2023/03/14 04:57:11;;;;;;;9.17;1.17;;;10.70;99.90;;;;;;4995781;28;20026;-83
2023/03/14 04:59:37;;;;;;;10.43;0.93;;;10.70;99.90;;;;;;4978644;28;20387;-82
2023/03/14 05:02:02;;;;;;;7.43;1.00;;;10.70;99.90;;;;;;4994427;28;20141;-83
2023/03/14 05:04:29;;;;;;;8.73;1.10;;;10.70;99.90;;;;;;4996256;28;20034;-84
2023/03/14 05:06:54;;;;;;;7.93;0.80;;;10.70;99.90;;;;;;4978767;28;20031;-82
2023/03/14 05:09:20;;;;;;;10.07;1.10;;;10.70;99.90;;;;;;4996229;28;20030;-82
2023/03/14 05:11:46;;;;;;;11.60;1.13;;;10.70;99.90;;;;;;4994623;28;20043;-83
2023/03/14 05:14:11;;;;;;;8.23;1.30;;;10.70;99.90;;;;;;4995996;28;20031;-83
2023/03/14 05:16:37;;;;;;;6.87;0.67;;;10.70;99.90;;;;;;4962094;28;20030;-83
2023/03/14 05:19:03;;;;;;;7.53;1.10;;;10.70;99.90;;;;;;4978818;28;20111;-84
2023/03/14 05:21:28;;;;;;;6.47;0.80;;;10.70;99.90;;;;;;4994143;28;20065;-83
2023/03/14 05:23:54;;;;;;;8.77;1.07;;;10.70;99.90;;;;;;4978269;28;20053;-83
2023/03/14 05:26:19;;;;;;;9.37;0.90;;;10.70;99.90;;;;;;4995224;28;20030;-82
2023/03/14 05:28:45;;;;;;;5.40;1.00;;;10.70;99.90;;;;;;4961782;28;20026;-83
2023/03/14 05:31:11;;;;;;;4.60;0.90;;;10.60;99.90;;;;;;4961667;28;20081;-83
2023/03/14 05:33:37;;;;;;;6.07;0.90;;;10.60;99.90;;;;;;4993944;28;20077;-82
2023/03/14 05:36:03;;;;;;;7.97;0.83;;;10.60;99.90;;;;;;4977963;28;20027;-83
2023/03/14 05:38:29;;;;;;;7.40;0.60;;;10.60;99.90;;;;;;4968070;28;20045;-82
2023/03/14 05:40:54;;;;;;;4.43;0.73;;;10.60;99.90;;;;;;4995338;28;20546;-81
2023/03/14 05:43:20;;;;;;;7.17;0.83;;;10.50;99.90;;;;;;4995032;28;20038;-80
2023/03/14 05:45:46;;;;;;;6.60;0.70;;;10.50;99.90;;;;;;4988265;28;20041;-82
2023/03/14 05:48:11;;;;;;;3.70;0.70;;;10.50;99.90;;;;;;5011898;28;20470;-83
2023/03/14 05:50:37;;;;;;;6.20;0.63;;;10.50;99.90;;;;;;4994748;28;20035;-83
2023/03/14 05:53:03;;;;;;;8.03;0.90;;;10.50;99.90;;;;;;4992550;28;20042;-82
2023/03/14 05:55:28;;;;;;;4.90;0.90;;;10.50;99.90;;;;;;4975668;28;20054;-83
2023/03/14 05:57:54;;;;;;;7.03;1.17;;;10.40;99.90;;;;;;4993877;28;20430;-83
2023/03/14 06:00:21;;;;;;;4.73;0.80;;;10.40;99.90;;;;;;4977899;28;20502;-84
2023/03/14 06:02:46;;;;;;;6.17;1.50;;;10.40;99.90;;;;;;4993469;28;20499;-83
2023/03/14 06:05:12;;;;;;;6.33;0.90;;;10.40;99.90;;;;;;4977614;28;20033;-83
2023/03/14 06:07:38;;;;;;;7.07;1.17;;;10.40;99.90;;;;;;5004804;28;20026;-84
2023/03/14 06:10:04;;;;;;;7.43;1.00;;;10.40;99.90;;;;;;4996329;28;20482;-84
2023/03/14 06:12:30;;;;;;;4.77;1.27;;;10.40;99.90;;;;;;4976452;28;20037;-83
2023/03/14 06:14:55;;;;;;;9.30;1.27;;;10.40;99.90;;;;;;4980091;28;20030;-83
2023/03/14 06:17:21;;;;;;;9.47;1.23;;;10.30;99.90;;;;;;4995523;28;20022;-85
2023/03/14 06:19:47;;;;;;;8.23;1.40;;;10.40;99.90;;;;;;4979547;28;20425;-85
2023/03/14 06:22:13;;;;;;;5.60;1.10;;;10.30;99.90;;;;;;4963421;28;20537;-84
2023/03/14 06:24:39;;;;;;;5.17;1.50;;;10.30;99.90;;;;;;4996058;28;20133;-83
2023/03/14 06:27:04;;;;;;;7.03;2.23;;;10.30;99.90;;;;;;5013322;28;20101;-84
2023/03/14 06:29:30;;;;;;;6.57;1.50;;;10.20;99.90;;;;;;4996851;28;20095;-86
2023/03/14 06:31:56;;;;;;;6.77;1.67;;;10.20;99.90;;;;;;4996426;28;20073;-84
2023/03/14 06:34:21;;;;;;;5.47;1.03;;;10.20;99.90;;;;;;4998199;28;20061;-86
2023/03/14 06:36:47;;;;;;;4.70;1.63;;;10.10;99.90;;;;;;4996647;28;20545;-85
2023/03/14 06:39:13;;;;;;;6.93;1.40;;;10.10;99.90;;;;;;5014203;28;20462;-85
2023/03/14 06:41:38;;;;;;;8.83;1.87;;;10.10;99.90;;;;;;4996381;28;20057;-82
2023/03/14 06:44:04;;;;;;;7.27;1.70;;;10.10;99.90;;;;;;4964688;28;20034;-87
2023/03/14 06:46:31;;;;;;;6.47;1.70;;;10.10;99.90;;;;;;4996635;28;20413;-85
2023/03/14 06:48:56;;;;;;;11.23;2.43;;;10.10;99.90;;;;;;4980723;28;20033;-85
2023/03/14 06:51:22;;;;;;;7.23;2.23;;;10.10;99.90;;;;;;4996103;28;20037;-82
2023/03/14 06:53:48;;;;;;;8.60;2.10;;;10.10;99.90;;;;;;4974443;28;20031;-82
2023/03/14 06:56:14;;;;;;;5.43;2.50;;;10.00;99.90;;;;;;4974700;28;20037;-81
2023/03/14 06:58:39;;;;;;;9.40;2.30;;;10.00;99.90;;;;;;4974805;28;20039;-80
2023/03/14 07:01:10;;;;;;;9.53;2.87;;;10.00;99.90;;;;;;4990273;28;20033;-80
2023/03/14 07:03:35;;;;;;;9.53;3.10;;;10.10;99.90;;;;;;4990354;28;20039;-81
2023/03/14 07:06:01;;;;;;;8.63;2.77;;;10.00;99.90;;;;;;4990951;28;20044;-80
2023/03/14 07:08:26;;;;;;;6.77;3.23;;;10.10;99.90;;;;;;4973408;28;20437;-81
2023/03/14 07:10:52;;;;;;;7.23;2.93;;;10.10;99.90;;;;;;4990166;28;20026;-82
2023/03/14 07:13:18;;;;;;;8.90;3.20;;;10.10;99.90;;;;;;4957862;28;20125;-81
2023/03/14 07:15:45;;;;;;;5.53;2.50;;;10.20;99.90;;;;;;4991473;28;20133;-81
2023/03/14 07:18:10;;;;;;;6.57;2.67;;;10.20;99.90;;;;;;4992366;28;20026;-82
2023/03/14 07:20:36;;;;;;;7.60;3.30;;;10.20;99.90;;;;;;4960555;28;20068;-81
2023/03/14 07:23:03;;;;;;;12.27;4.20;;;10.20;99.90;;;;;;4992696;28;20534;-81
2023/03/14 07:25:28;;;;;;;11.63;4.03;;;10.10;99.90;;;;;;4999806;28;20029;-82
2023/03/14 07:27:54;;;;;;;8.43;3.43;;;10.00;99.90;;;;;;4999815;28;20026;-81
2023/03/14 07:30:20;;;;;;;7.87;3.40;;;9.90;99.90;;;;;;4982310;28;20027;-81
2023/03/14 07:32:45;;;;;;;7.03;2.43;;;9.70;99.90;;;;;;4998740;28;20501;-82
2023/03/14 07:35:11;;;;;;;7.10;2.50;;;9.60;99.90;;;;;;4999278;28;20027;-82
2023/03/14 07:37:37;;;;;;;5.37;1.57;;;9.40;99.90;;;;;;4982506;28;20150;-82
2023/03/14 07:40:05;;;;;;;4.57;1.20;;;9.30;99.90;;;;;;4967155;28;20378;-83
2023/03/14 07:42:30;;;;;;;6.93;1.33;;;9.10;99.90;;;;;;5000076;28;20065;-81
2023/03/14 07:44:56;;;;;;;4.93;1.37;;;9.00;99.90;;;;;;4998546;28;20614;-83
2023/03/14 07:47:22;;;;;;;6.07;1.40;;;8.80;99.90;;;;;;4998868;28;20041;-81
2023/03/14 07:49:47;;;;;;;5.97;1.27;;;8.70;99.90;;;;;;4982491;28;20081;-81
2023/03/14 07:52:13;;;;;;;3.77;1.30;;;8.70;99.90;;;;;;4982596;28;20485;-81
2023/03/14 07:54:38;;;;;;;4.33;1.10;;;8.60;99.90;;;;;;5002823;28;20110;-81
2023/03/14 07:57:04;;;;;;;5.43;1.60;;;8.50;99.90;;;;;;5000223;28;20062;-81
2023/03/14 07:59:30;;;;;;;7.10;1.40;;;8.50;99.90;;;;;;4966638;28;20387;-82
2023/03/14 08:01:55;;;;;;;5.70;1.20;;;8.50;99.90;;;;;;4998446;28;20097;-81
2023/03/14 08:04:21;;;;;;;10.43;1.57;;;8.40;99.90;;;;;;4966000;28;20471;-82
2023/03/14 08:06:46;;;;;;;4.23;1.57;;;8.40;99.90;;;;;;4998645;28;20073;-81
2023/03/14 08:09:12;;;;;;;2.97;1.23;;;8.30;99.90;;;;;;4982981;28;20080;-82
2023/03/14 08:11:38;;;;;;;4.93;1.30;;;8.30;99.90;;;;;;4998811;28;20026;-82
2023/03/14 08:14:03;;;;;;;3.63;1.47;;;8.20;99.90;;;;;;4999621;28;20023;-82
2023/03/14 08:16:29;;;;;;;4.77;1.03;;;8.10;99.90;;;;;;4998957;28;20037;-82
2023/03/14 08:18:55;;;;;;;2.47;1.00;;;8.00;99.90;;;;;;4982079;28;20475;-82
2023/03/14 08:21:21;;;;;;;3.73;1.10;;;8.00;99.90;;;;;;4997944;28;20030;-81
2023/03/14 08:23:47;;;;;;;3.80;0.97;;;8.00;99.90;;;;;;4998734;28;20093;-81
2023/03/14 08:26:12;;;;;;;3.43;1.00;;;7.90;99.90;;;;;;4982418;28;20030;-81
2023/03/14 08:28:38;;;;;;;5.40;1.00;;;7.90;99.90;;;;;;4999785;28;20023;-82
2023/03/14 08:31:04;;;;;;;4.90;1.30;;;7.90;99.90;;;;;;4997750;28;20437;-81
2023/03/14 08:33:30;;;;;;;4.20;0.93;;;7.90;99.90;;;;;;4998320;28;20045;-82
2023/03/14 08:35:57;;;;;;;2.37;0.93;;;7.90;99.90;;;;;;4995832;28;20505;-82
2023/03/14 08:38:23;;;;;;;3.53;1.00;;;7.90;99.90;;;;;;4995267;28;20113;-82
2023/03/14 08:40:49;;;;;;;4.73;0.93;;;7.90;99.90;;;;;;4994994;28;20462;-82
2023/03/14 08:43:15;;;;;;;7.67;1.13;;;7.90;99.90;;;;;;4995278;28;20506;-82
2023/03/14 08:45:41;;;;;;;7.03;0.80;;;7.90;99.90;;;;;;4995286;28;20061;-82
2023/03/14 08:48:06;;;;;;;10.90;1.27;;;7.70;99.90;;;;;;4996280;28;20383;-81
2023/03/14 08:50:33;;;;;;;8.63;1.10;;;7.60;99.90;;;;;;4995185;28;20486;-82
2023/03/14 08:52:59;;;;;;;10.87;1.57;;;7.50;99.90;;;;;;4995222;28;20053;-81
2023/03/14 08:55:27;;;;;;;7.57;1.00;;;7.40;99.90;;;;;;4978683;28;20095;-82
2023/03/14 08:57:53;;;;;;;11.57;1.30;;;7.30;99.90;;;;;;4978763;28;20483;-82
2023/03/14 09:00:19;;;;;;;8.60;1.20;;;7.40;99.90;;;;;;4994694;28;20057;-82
2023/03/14 09:02:44;;;;;;;8.17;1.20;;;7.30;99.90;;;;;;4994598;28;20045;-81
2023/03/14 09:05:11;;;;;;;13.17;1.10;;;7.30;99.90;;;;;;4978796;28;20035;-82
2023/03/14 09:07:37;;;;;;;14.90;2.30;;;7.40;99.90;;;;;;4996085;28;20027;-82
2023/03/14 09:10:03;;;;;;;10.07;1.70;;;7.30;99.90;;;;;;4995697;28;20490;-81
2023/03/14 09:12:30;;;;;;;4.27;1.10;;;7.40;99.90;;;;;;4994809;28;20027;-81
2023/03/14 09:14:56;;;;;;;6.33;0.80;;;7.40;99.90;;;;;;4994814;28;20394;-81
2023/03/14 09:17:21;;;;;;;6.00;0.87;;;7.40;99.90;;;;;;4994551;28;20031;-81
2023/03/14 09:19:47;;;;;;;6.20;0.80;;;7.40;99.90;;;;;;4978424;28;20113;-82
2023/03/14 09:22:13;;;;;;;7.20;1.00;;;7.30;99.90;;;;;;4978359;28;20505;-81
2023/03/14 09:24:40;;;;;;;5.70;0.70;;;7.30;99.90;;;;;;4994452;28;20026;-81
2023/03/14 09:27:07;;;;;;;4.37;0.60;;;7.20;99.90;;;;;;4994319;28;20030;-81
2023/03/14 09:29:32;;;;;;;6.07;0.60;;;7.20;99.90;;;;;;4978356;28;20041;-82
2023/03/14 09:31:58;;;;;;;5.13;0.80;;;7.20;99.90;;;;;;4995021;28;20022;-81
2023/03/14 09:34:24;;;;;;;5.40;0.47;;;7.40;99.90;;;;;;4994450;28;20038;-81
2023/03/14 09:36:50;;;;;;;1.77;0.50;;;7.50;99.90;;;;;;4995696;28;20027;-81
2023/03/14 09:39:16;;;;;;;4.87;0.40;;;7.60;99.90;;;;;;4977826;28;20498;-81
2023/03/14 09:41:46;;;;;;;3.60;0.40;;;7.60;99.90;;;;;;4994182;28;20045;-80
2023/03/14 09:44:19;;;;;;;6.60;0.83;;;7.70;99.90;;;;;;4994369;28;20045;-82
2023/03/14 09:46:48;;;;;;;5.23;0.40;;;7.80;99.90;;;;;;4993432;28;20081;-82
2023/03/14 09:49:23;;;;;;;5.00;0.60;;;7.90;99.90;;;;;;4994608;28;20394;-81
2023/03/14 09:51:53;;;;;;;8.97;0.50;;;7.80;99.90;;;;;;4994200;28;20108;-81
2023/03/14 09:54:42;;;;;;;5.67;0.53;;;7.90;99.90;;;;;;4995606;28;20489;-80
2023/03/14 09:57:14;;;;;;;5.57;0.43;;;7.90;99.90;;;;;;4994955;28;20026;-80
2023/03/14 09:59:43;;;;;;;4.80;0.60;;;7.90;99.90;;;;;;4994062;28;20026;-82
2023/03/14 10:02:34;;;;;;;3.10;0.40;;;7.90;99.90;;;;;;4993486;28;20475;-81
2023/03/14 10:05:00;;;;;;;5.53;0.50;;;7.80;99.90;;;;;;4993714;28;20102;-80
2023/03/14 10:07:29;;;;;;;4.23;0.47;;;7.80;99.90;;;;;;4995360;28;20438;-81
2023/03/14 10:09:56;;;;;;;6.83;0.57;;;7.80;99.90;;;;;;4994144;28;20113;-80
2023/03/14 10:12:34;;;;;;;6.03;0.63;;;7.80;99.90;;;;;;4994049;28;20093;-81
2023/03/14 10:15:07;;;;;;;5.90;1.00;;;7.90;99.90;;;;;;4977091;28;20103;-81
2023/03/14 10:17:44;;;;;;;6.70;1.30;;;8.00;99.90;;;;;;4978046;28;20023;-80
2023/03/14 10:20:38;;;;;;;8.43;0.90;;;8.00;99.90;;;;;;4977814;28;20026;-81
2023/03/14 10:23:24;;;;;;;4.68;0.63;;;8.00;99.90;;;;;;4993920;28;20038;-81
2023/03/14 10:26:12;;;;;;;8.73;0.73;;;8.10;99.90;;;;;;4977511;28;20383;-81
2023/03/14 10:28:43;;;;;;;11.23;1.73;;;8.20;99.90;;;;;;4995448;28;20463;-80
2023/03/14 10:31:09;;;;;;;12.67;1.40;;;8.20;99.90;;;;;;4977058;28;20026;-80
2023/03/14 10:33:37;;;;;;;10.73;1.00;;;8.20;99.90;;;;;;4994813;28;20045;-80
2023/03/14 10:36:15;;;;;;;15.03;1.77;;;8.30;99.90;;;;;;4977692;28;20029;-81
2023/03/14 10:38:40;;;;;;;13.43;1.60;;;8.50;99.90;;;;;;4992646;28;20069;-81
2023/03/14 10:41:18;;;;;;;15.93;1.67;;;8.60;99.90;;;;;;4977898;28;20023;-80
2023/03/14 10:43:44;;;;;;;12.13;2.30;;;8.60;99.90;;;;;;4982780;28;20499;-81
2023/03/14 10:46:15;;;;;;;12.40;1.40;;;8.60;99.90;;;;;;5002987;28;20033;-81
2023/03/14 10:48:41;;;;;;;14.90;1.30;;;8.70;99.90;;;;;;4996010;28;20090;-82
2023/03/14 10:51:16;;;;;;;11.53;1.60;;;9.00;99.90;;;;;;4977618;28;20027;-78
2023/03/14 10:53:47;;;;;;;16.20;1.80;;;9.10;99.90;;;;;;4994496;28;20026;-80
2023/03/14 10:56:15;;;;;;;11.40;1.43;;;9.20;99.90;;;;;;4992835;28;20031;-81
2023/03/14 10:58:47;;;;;;;13.80;1.37;;;9.60;99.90;;;;;;4976490;28;20076;-81
2023/03/14 11:01:40;;;;;;;14.67;1.93;;;9.60;99.90;;;;;;4975964;28;20029;-82
2023/03/14 11:04:40;;;;;;;15.53;1.80;;;9.60;99.90;;;;;;4993037;28;20033;-81
2023/03/14 11:07:16;;;;;;;10.73;2.03;;;9.30;98.40;;;;;;4992938;28;20211;-82
2023/03/14 11:09:58;;;;;;;18.53;2.63;;;9.10;98.40;;;;;;4994387;28;20063;-80
2023/03/14 11:12:49;;;;;;;17.00;1.93;;;9.00;98.60;;;;;;4976695;28;20486;-80
2023/03/14 11:15:41;;;;;;;15.40;1.80;;;9.10;98.90;;;;;;4976932;28;20045;-81
2023/03/14 11:18:25;;;;;;;13.13;1.67;;;9.40;99.30;;;;;;4976154;28;20447;-80
2023/03/14 11:20:57;;;;;;;13.30;1.60;;;9.40;99.20;;;;;;4976455;28;20037;-81
2023/03/14 11:23:41;;;;;;;15.40;1.93;;;9.60;99.20;;;;;;4977142;28;20382;-81
2023/03/14 11:26:32;;;;;;;11.52;2.00;;;9.90;99.30;;;;;;4994583;28;20058;-80
2023/03/14 11:29:10;;;;;;;14.73;2.47;;;10.00;98.60;;;;;;4994654;28;20034;-81
2023/03/14 11:31:40;;;;;;;19.30;2.60;;;10.00;94.70;;;;;;4976132;28;20119;-79
2023/03/14 11:34:30;;;;;;;18.60;2.73;;;9.80;94.10;;;;;;4976067;28;20035;-81
2023/03/14 11:37:11;;;;;;;15.37;2.60;;;9.70;92.50;;;;;;4993898;28;20022;-82
2023/03/14 11:39:44;;;;;;;14.90;2.50;;;9.70;92.90;;;;;;4973081;28;20049;-81
2023/03/14 11:42:14;;;;;;;18.08;2.60;;;9.70;92.50;;;;;;4973994;28;20065;-81
2023/03/14 11:44:43;;;;;;;18.30;2.93;;;9.70;92.20;;;;;;4974918;28;20031;-82
2023/03/14 11:47:34;;;;;;;15.83;2.37;;;9.80;91.30;;;;;;4973768;28;20118;-82
2023/03/14 11:50:06;;;;;;;13.00;1.90;;;9.90;90.30;;;;;;4964191;28;20035;-81
2023/03/14 11:52:37;;;;;;;17.57;1.97;;;10.00;89.90;;;;;;4957372;28;20415;-79
2023/03/14 11:55:12;;;;;;;8.13;1.25;;;10.40;91.00;;;;;;4973533;28;20027;-81
2023/03/14 11:57:39;;;;;;;18.67;1.90;;;10.70;90.40;;;;;;4956609;28;20027;-83
2023/03/14 12:00:23;;;;;;;12.43;1.77;;;11.40;87.00;;;;;;4957148;28;20161;-82
2023/03/14 12:03:26;;;;;;;16.58;1.55;;;12.00;88.60;;;;;;4974671;28;20109;-82
2023/03/14 12:06:01;;;;;;;11.57;1.67;;;12.80;83.40;;;;;;4974408;28;20049;-83
2023/03/14 12:08:49;;;;;;;14.70;2.63;;;13.50;78.10;;;;;;4973772;28;20043;-82
2023/03/14 12:11:29;;;;;;;14.95;1.73;;;14.10;75.30;;;;;;4975586;28;20054;-82
2023/03/14 12:13:55;;;;;;;10.50;1.40;;;14.00;70.90;;;;;;4977499;28;20031;-83
2023/03/14 12:16:24;;;;;;;12.15;1.75;;;14.00;69.50;;;;;;4977089;28;20554;-82
2023/03/14 12:18:51;;;;;;;12.85;1.52;;;14.50;69.20;;;;;;4978470;28;20071;-83
2023/03/14 12:21:18;;;;;;;10.43;1.30;;;15.00;65.70;;;;;;4978014;28;20089;-83
2023/03/14 12:23:48;;;;;;;11.18;1.73;;;15.60;62.00;;;;;;4977438;28;20045;-83
2023/03/14 12:26:25;;;;;;;8.80;1.40;;;15.80;57.40;;;;;;4976575;28;20031;-82
2023/03/14 12:28:57;;;;;;;7.30;1.35;;;16.10;58.40;;;;;;4975462;28;20018;-82
2023/03/14 12:31:31;;;;;;;9.27;1.30;;;16.20;58.00;;;;;;4979088;28;20435;-82
2023/03/14 12:34:09;;;;;;;12.70;1.83;;;16.30;54.90;;;;;;4976151;28;20049;-82
2023/03/14 12:36:50;;;;;;;10.02;1.75;;;16.00;52.00;;;;;;4978259;28;20035;-82
2023/03/14 12:39:54;;;;;;;9.63;1.25;;;15.90;51.50;;;;;;4972929;28;20483;-82
2023/03/14 12:42:29;;;;;;;;;;;16.00;50.80;;;;;;4969335;28;20059;-82
2023/03/14 12:45:24;;;;;;;6.47;0.80;;;16.30;49.10;;;;;;4978290;28;19960;-83
2023/03/14 12:47:54;;;;;;;7.85;1.27;;;16.50;50.10;;;;;;4977105;28;20037;-82
2023/03/14 12:50:26;;;;;;;11.32;1.42;;;16.80;47.80;;;;;;4976823;28;20041;-81
2023/03/14 12:52:58;;;;;;;9.20;1.63;;;16.80;48.40;;;;;;4975948;28;20019;-82
2023/03/14 12:55:48;;;;;;;8.60;1.58;;;17.10;48.00;;;;;;4975870;28;20042;-82